KFLO/FLO METAR and TAF weather

Enter ICAO airport designator
Station Type Date Time Source
KFLO METAR 2020/02/24 07:53 UTC NOAA

KFLO 240753Z AUTO 17003KT 10SM OVC090 11/03 A3012 RMK AO2 SLP197 T01060028


Station Type Date Time Source
KFLO Decoded METAR 2020/02/24 07:53 UTC NOAA

FLORENCE REGIONAL AIRPORT, SC, United States (KFLO) 34-11N 079-44W 44M
Feb 24, 2020 - 02:53 AM EST / 2020.02.24 0753 UTC
Wind: from the S (170 degrees) at 3 MPH (3 KT):0
Visibility: 10 mile(s):0
Sky conditions: overcast
Temperature: 51.1 F (10.6 C)
Dew Point: 37.0 F (2.8 C)
Relative Humidity: 58%
Pressure (altimeter): 30.12 in. Hg (1019 hPa)
ob: KFLO 240753Z AUTO 17003KT 10SM OVC090 11/03 A3012 RMK AO2 SLP197 T01060028
cycle: 8

Station Type Date Time Source
KFLO TAF 2020/02/24 06:22 UTC NOAA

TAF KFLO 240520Z 2406/2506 VRB03KT P6SM BKN100
FM241500 00000KT P6SM VCSH OVC050
FM241900 00000KT 6SM -RA OVC030
FM242200 VRB03KT 5SM -RA OVC010
FM250100 12004KT 3SM SHRA BR OVC006

Example: see airport list